createdAt,value
2017-08-06T00:01:45.710Z,42.10
2017-08-06T00:04:13.194Z,41.70
2017-08-06T00:06:40.685Z,41.70
2017-08-06T00:09:08.176Z,41.50
2017-08-06T00:11:36.431Z,41.90
2017-08-06T00:14:03.935Z,41.80
2017-08-06T00:16:31.417Z,42.00
2017-08-06T00:18:58.905Z,41.80
2017-08-06T00:21:26.413Z,41.90
2017-08-06T00:23:53.898Z,41.90
2017-08-06T00:26:21.382Z,41.70
2017-08-06T00:28:48.865Z,41.70
2017-08-06T00:31:17.115Z,41.70
2017-08-06T00:33:44.607Z,41.70
2017-08-06T00:36:12.110Z,42.00
2017-08-06T00:38:39.600Z,41.70
2017-08-06T00:41:07.079Z,41.70
2017-08-06T00:43:35.348Z,42.20
2017-08-06T00:46:03.594Z,41.80
2017-08-06T00:48:31.069Z,41.80
2017-08-06T00:50:58.572Z,41.40
2017-08-06T00:53:26.061Z,42.20
2017-08-06T00:55:53.557Z,42.30
2017-08-06T00:58:21.822Z,42.40
2017-08-06T01:00:49.310Z,42.40
2017-08-06T01:03:16.800Z,42.10
2017-08-06T01:05:44.298Z,41.80
2017-08-06T01:08:11.778Z,41.50
2017-08-06T01:10:40.041Z,42.00
2017-08-06T01:13:07.534Z,41.90
2017-08-06T01:15:35.014Z,42.30
2017-08-06T01:18:04.129Z,43.00
2017-08-06T01:20:31.636Z,42.90
2017-08-06T01:22:59.125Z,43.10
2017-08-06T01:25:26.601Z,42.90
2017-08-06T01:27:54.102Z,43.10
2017-08-06T01:30:22.346Z,44.10
2017-08-06T01:32:49.840Z,43.90
2017-08-06T01:35:18.093Z,43.70
2017-08-06T01:37:45.576Z,43.70
2017-08-06T01:40:13.830Z,44.00
2017-08-06T01:42:41.337Z,44.00
2017-08-06T01:45:08.822Z,43.40
2017-08-06T01:47:36.301Z,43.60
2017-08-06T01:50:03.789Z,44.50
2017-08-06T01:52:32.039Z,44.00
2017-08-06T01:54:59.526Z,44.10
2017-08-06T01:57:27.790Z,42.60
2017-08-06T01:59:55.283Z,42.60
2017-08-06T02:02:22.770Z,43.70
2017-08-06T02:04:50.271Z,43.50
2017-08-06T02:07:18.528Z,44.10
2017-08-06T02:09:46.006Z,43.50
2017-08-06T02:12:13.494Z,43.30
2017-08-06T02:14:40.977Z,43.30
2017-08-06T02:17:08.472Z,43.40
2017-08-06T02:19:35.987Z,43.30
2017-08-06T02:22:03.478Z,43.30
2017-08-06T02:24:30.974Z,43.40
2017-08-06T02:26:59.229Z,44.20
2017-08-06T02:29:26.705Z,44.10
2017-08-06T02:31:54.197Z,44.50
2017-08-06T02:34:21.686Z,44.40
2017-08-06T02:36:49.165Z,44.80
2017-08-06T02:39:16.646Z,44.30
2017-08-06T02:41:44.915Z,44.10
2017-08-06T02:44:13.172Z,44.00
2017-08-06T02:46:40.651Z,44.00
2017-08-06T02:49:08.915Z,43.70
2017-08-06T02:51:36.442Z,43.70
2017-08-06T02:54:03.932Z,44.10
2017-08-06T02:56:31.438Z,44.20
2017-08-06T02:58:58.918Z,44.20
2017-08-06T03:01:26.412Z,44.70
2017-08-06T03:03:53.919Z,45.10
2017-08-06T03:06:21.424Z,44.90
2017-08-06T03:08:48.910Z,44.60
2017-08-06T03:11:17.175Z,45.20
2017-08-06T03:13:45.439Z,45.80
2017-08-06T03:16:12.930Z,45.10
2017-08-06T03:18:40.426Z,44.80
2017-08-06T03:21:07.928Z,44.00
2017-08-06T03:23:36.181Z,44.60
2017-08-06T03:26:03.675Z,44.60
2017-08-06T03:28:31.931Z,44.80
2017-08-06T03:30:59.418Z,44.70
2017-08-06T03:33:26.931Z,44.40
2017-08-06T03:35:54.414Z,45.60
2017-08-06T03:38:21.904Z,45.60
2017-08-06T03:40:49.410Z,45.20
2017-08-06T03:43:16.923Z,44.80
2017-08-06T03:45:44.406Z,44.90
2017-08-06T03:48:11.902Z,44.60
2017-08-06T03:50:39.374Z,44.60
2017-08-06T03:53:07.622Z,44.70
2017-08-06T03:55:35.131Z,44.70
2017-08-06T03:58:02.619Z,44.70
2017-08-06T04:00:30.099Z,44.60
2017-08-06T04:02:57.600Z,44.80
2017-08-06T04:05:25.086Z,44.70
2017-08-06T04:07:52.561Z,44.60
2017-08-06T04:10:20.066Z,44.20
2017-08-06T04:12:48.325Z,45.00
2017-08-06T04:15:15.808Z,45.00
2017-08-06T04:17:44.079Z,45.50
2017-08-06T04:20:12.328Z,45.80
2017-08-06T04:22:39.819Z,45.70
2017-08-06T04:25:08.077Z,45.00
2017-08-06T04:27:35.559Z,45.00
2017-08-06T04:30:03.801Z,44.70
2017-08-06T04:32:31.312Z,44.60
2017-08-06T04:34:58.805Z,44.50
2017-08-06T04:37:26.287Z,44.00
2017-08-06T04:39:53.800Z,44.50
2017-08-06T04:42:21.278Z,44.60
2017-08-06T04:44:48.761Z,44.20
2017-08-06T04:47:16.253Z,44.20
2017-08-06T04:49:43.742Z,44.50
2017-08-06T04:52:11.235Z,44.20
2017-08-06T04:54:38.733Z,44.50
2017-08-06T04:57:06.381Z,44.30
2017-08-06T04:59:34.633Z,44.00
2017-08-06T05:02:02.135Z,43.90
2017-08-06T05:04:29.617Z,44.50
2017-08-06T05:06:57.117Z,44.40
2017-08-06T05:09:24.619Z,45.00
2017-08-06T05:11:52.099Z,44.70
2017-08-06T05:14:19.591Z,46.10
2017-08-06T05:16:47.087Z,45.60
2017-08-06T05:19:14.579Z,45.90
2017-08-06T05:21:42.092Z,44.90
2017-08-06T05:24:10.363Z,44.50
2017-08-06T05:26:38.606Z,44.30
2017-08-06T05:29:06.081Z,44.20
2017-08-06T05:31:33.580Z,44.50
2017-08-06T05:34:01.067Z,44.60
2017-08-06T05:36:28.546Z,44.30
2017-08-06T05:38:56.051Z,44.60
2017-08-06T05:41:23.547Z,44.80
2017-08-06T05:43:51.035Z,44.70
2017-08-06T05:46:18.529Z,44.40
2017-08-06T05:48:46.023Z,44.40
2017-08-06T05:51:13.516Z,44.40
2017-08-06T05:53:41.103Z,44.60
2017-08-06T05:56:08.583Z,44.30
2017-08-06T05:58:36.054Z,44.50
2017-08-06T06:01:03.550Z,44.10
2017-08-06T06:03:31.045Z,44.30
2017-08-06T06:05:58.542Z,44.80
2017-08-06T06:08:26.038Z,44.20
2017-08-06T06:10:53.523Z,44.20
2017-08-06T06:13:21.007Z,44.40
2017-08-06T06:15:48.506Z,44.30
2017-08-06T06:18:15.982Z,44.30
2017-08-06T06:20:44.228Z,44.80
2017-08-06T06:23:11.726Z,44.80
2017-08-06T06:25:39.974Z,44.70
2017-08-06T06:28:07.463Z,44.60
2017-08-06T06:30:34.972Z,44.60
2017-08-06T06:33:02.453Z,44.70
2017-08-06T06:35:29.939Z,45.10
2017-08-06T06:37:58.202Z,45.40
2017-08-06T06:40:26.458Z,45.50
2017-08-06T06:42:53.939Z,45.40
2017-08-06T06:45:22.206Z,45.60
2017-08-06T06:47:49.682Z,45.50
2017-08-06T06:50:17.953Z,45.70
2017-08-06T06:52:46.218Z,45.70
2017-08-06T06:55:13.732Z,45.60
2017-08-06T06:57:41.228Z,46.10
2017-08-06T07:00:08.727Z,46.80
2017-08-06T07:02:36.219Z,46.80
2017-08-06T07:05:03.703Z,46.70
2017-08-06T07:07:31.202Z,46.70
2017-08-06T07:09:58.692Z,46.80
2017-08-06T07:12:27.094Z,47.90
2017-08-06T07:14:54.599Z,47.20
2017-08-06T07:17:22.081Z,48.10
2017-08-06T07:19:49.571Z,48.70
2017-08-06T07:22:17.065Z,48.80
2017-08-06T07:24:45.328Z,49.30
2017-08-06T07:27:12.826Z,49.20
2017-08-06T07:29:40.334Z,49.00
2017-08-06T07:32:07.816Z,49.70
2017-08-06T07:34:36.070Z,49.20
2017-08-06T07:37:03.570Z,49.10
2017-08-06T07:39:31.062Z,48.90
2017-08-06T07:41:58.546Z,48.10
2017-08-06T07:44:26.046Z,48.30
2017-08-06T07:46:53.534Z,48.40
2017-08-06T07:49:21.014Z,48.50
2017-08-06T07:51:48.524Z,48.20
2017-08-06T07:54:16.003Z,48.30
2017-08-06T07:56:43.502Z,47.90
2017-08-06T07:59:10.985Z,47.70
2017-08-06T08:01:39.250Z,47.40
2017-08-06T08:04:06.745Z,47.40
2017-08-06T08:06:34.242Z,47.30
2017-08-06T08:09:01.726Z,47.30
2017-08-06T08:11:29.987Z,47.40
2017-08-06T08:13:57.486Z,47.30
2017-08-06T08:16:24.979Z,47.10
2017-08-06T08:18:52.472Z,46.90
2017-08-06T08:21:19.978Z,47.10
2017-08-06T08:23:47.452Z,47.20
2017-08-06T08:26:14.929Z,46.80
2017-08-06T08:28:42.431Z,47.30
2017-08-06T08:31:10.682Z,46.80
2017-08-06T08:33:38.179Z,46.70
2017-08-06T08:36:05.687Z,48.00
2017-08-06T08:38:33.176Z,47.80
2017-08-06T08:41:01.437Z,48.30
2017-08-06T08:43:28.930Z,47.70
2017-08-06T08:45:56.430Z,48.30
2017-08-06T08:48:23.947Z,47.80
2017-08-06T08:50:51.447Z,49.30
2017-08-06T08:53:18.948Z,48.80
2017-08-06T08:55:47.213Z,48.20
2017-08-06T08:58:14.751Z,48.10
2017-08-06T09:00:42.263Z,47.80
2017-08-06T09:03:09.828Z,47.80
2017-08-06T09:05:37.389Z,48.30
2017-08-06T09:08:04.898Z,47.60
2017-08-06T09:10:32.417Z,48.00
2017-08-06T09:13:00.041Z,47.90
2017-08-06T09:15:28.335Z,47.20
2017-08-06T09:17:55.917Z,47.10
2017-08-06T09:20:23.447Z,47.30
2017-08-06T09:22:51.705Z,47.70
2017-08-06T09:25:19.204Z,47.60
2017-08-06T09:27:46.731Z,47.30
2017-08-06T09:30:14.222Z,46.70
2017-08-06T09:32:41.715Z,46.30
2017-08-06T09:35:09.222Z,46.40
2017-08-06T09:37:37.578Z,45.80
2017-08-06T09:40:05.089Z,46.40
2017-08-06T09:42:32.600Z,47.00
2017-08-06T09:45:00.106Z,45.80
2017-08-06T09:47:27.617Z,46.30
2017-08-06T09:49:55.156Z,45.70
2017-08-06T09:52:22.643Z,45.20
2017-08-06T09:54:50.939Z,45.60
2017-08-06T09:57:19.219Z,46.00
2017-08-06T09:59:47.554Z,42.20
2017-08-06T10:02:15.060Z,42.10
2017-08-06T10:04:43.338Z,38.60
2017-08-06T10:07:11.635Z,38.00
2017-08-06T10:09:39.133Z,38.00
2017-08-06T10:12:06.712Z,39.10
2017-08-06T10:14:34.201Z,37.90
2017-08-06T10:17:01.714Z,40.00
2017-08-06T10:19:29.220Z,41.70
2017-08-06T10:21:56.725Z,43.20
2017-08-06T10:24:24.361Z,44.60
2017-08-06T10:26:52.120Z,44.60
2017-08-06T10:29:19.641Z,44.60
2017-08-06T10:31:47.965Z,43.60
2017-08-06T10:34:15.548Z,43.70
2017-08-06T10:36:43.098Z,44.00
2017-08-06T10:39:10.593Z,44.20
2017-08-06T10:41:38.095Z,44.70
2017-08-06T10:44:05.617Z,43.90
2017-08-06T10:46:33.880Z,42.70
2017-08-06T10:49:01.401Z,42.60
2017-08-06T10:51:28.968Z,42.20
2017-08-06T10:53:56.458Z,42.50
2017-08-06T10:56:24.033Z,42.50
2017-08-06T10:58:52.329Z,42.10
2017-08-06T11:01:19.868Z,42.10
2017-08-06T11:03:47.485Z,41.00
2017-08-06T11:06:15.011Z,40.70
2017-08-06T11:08:43.351Z,40.60
2017-08-06T11:11:10.891Z,40.50
2017-08-06T11:13:38.386Z,41.60
2017-08-06T11:16:05.907Z,41.50
2017-08-06T11:18:33.426Z,41.70
2017-08-06T11:21:00.939Z,41.80
2017-08-06T11:23:28.439Z,40.70
2017-08-06T11:25:56.759Z,40.90
2017-08-06T11:28:24.241Z,40.90
2017-08-06T11:30:51.732Z,41.80
2017-08-06T11:33:20.003Z,43.10
2017-08-06T11:35:48.253Z,43.90
2017-08-06T11:38:15.734Z,43.10
2017-08-06T11:40:43.242Z,42.20
2017-08-06T11:43:10.739Z,42.20
2017-08-06T11:45:38.225Z,43.80
2017-08-06T11:48:06.499Z,43.00
2017-08-06T11:50:34.750Z,43.60
2017-08-06T11:53:02.239Z,43.60
2017-08-06T11:55:30.511Z,43.80
2017-08-06T11:57:58.810Z,44.50
2017-08-06T12:00:26.304Z,43.70
2017-08-06T12:02:53.821Z,43.50
2017-08-06T12:05:21.321Z,42.60
2017-08-06T12:07:48.800Z,43.30
2017-08-06T12:10:16.301Z,42.70
2017-08-06T12:12:44.551Z,42.80
2017-08-06T12:15:12.035Z,42.80
2017-08-06T12:17:40.306Z,43.50
2017-08-06T12:20:08.580Z,41.60
2017-08-06T12:22:36.845Z,42.40
2017-08-06T12:25:04.350Z,42.40
2017-08-06T12:27:31.870Z,43.60
2017-08-06T12:30:00.132Z,43.10
2017-08-06T12:32:27.655Z,43.10
2017-08-06T12:34:55.159Z,43.30
2017-08-06T12:37:22.669Z,43.80
2017-08-06T12:39:50.178Z,43.60
2017-08-06T12:42:18.465Z,45.70
2017-08-06T12:44:46.779Z,47.20
2017-08-06T12:47:14.322Z,47.20
2017-08-06T12:49:41.832Z,46.50
2017-08-06T12:52:09.327Z,45.80
2017-08-06T12:54:37.594Z,48.20
2017-08-06T12:57:05.889Z,48.70
2017-08-06T12:59:33.380Z,48.70
2017-08-06T13:02:00.911Z,48.00
2017-08-06T13:04:28.427Z,47.90
2017-08-06T13:06:55.908Z,48.00
2017-08-06T13:09:23.421Z,47.50
2017-08-06T13:11:50.937Z,46.00
2017-08-06T13:14:19.220Z,47.10
2017-08-06T13:16:47.495Z,46.80
2017-08-06T13:19:15.785Z,47.40
2017-08-06T13:21:43.288Z,47.30
2017-08-06T13:24:10.826Z,48.90
2017-08-06T13:26:38.329Z,48.50
2017-08-06T13:29:05.828Z,48.20
2017-08-06T13:31:33.330Z,48.00
2017-08-06T13:34:00.842Z,47.80
2017-08-06T13:36:28.370Z,47.40
2017-08-06T13:38:55.881Z,46.80
2017-08-06T13:41:23.390Z,46.70
2017-08-06T13:43:50.891Z,46.90
2017-08-06T13:46:18.459Z,48.20
2017-08-06T13:48:45.990Z,48.80
2017-08-06T13:51:13.513Z,49.40
2017-08-06T13:53:41.022Z,49.70
2017-08-06T13:56:08.550Z,49.50
2017-08-06T13:58:36.030Z,48.40
2017-08-06T14:01:03.546Z,48.80
2017-08-06T14:03:31.030Z,48.70
2017-08-06T14:05:59.280Z,49.00
2017-08-06T14:08:26.786Z,48.60
2017-08-06T14:10:54.274Z,48.70
2017-08-06T14:13:21.763Z,48.60
2017-08-06T14:15:49.266Z,48.40
2017-08-06T14:18:16.750Z,49.40
2017-08-06T14:20:44.252Z,48.60
2017-08-06T14:23:11.764Z,50.00
2017-08-06T14:25:39.634Z,48.80
2017-08-06T14:28:08.539Z,48.80
2017-08-06T14:30:36.257Z,48.70
2017-08-06T14:33:05.564Z,49.30
2017-08-06T14:35:34.559Z,48.70
2017-08-06T14:38:02.863Z,48.70
2017-08-06T14:40:30.731Z,47.80
2017-08-06T14:42:59.010Z,46.80
2017-08-06T14:45:27.521Z,46.00
2017-08-06T14:47:55.769Z,46.80
2017-08-06T14:50:23.716Z,47.00
2017-08-06T14:52:51.917Z,47.60
2017-08-06T14:55:27.696Z,47.90
2017-08-06T14:58:10.126Z,48.10
2017-08-06T15:00:49.387Z,46.70
2017-08-06T15:03:27.210Z,46.60
2017-08-06T15:06:02.776Z,47.40
2017-08-06T15:08:41.408Z,46.50
2017-08-06T15:14:08.832Z,45.90
2017-08-06T15:16:46.159Z,46.20
2017-08-06T15:22:10.619Z,45.60
2017-08-06T15:24:39.842Z,45.60
2017-08-06T15:27:07.657Z,44.50
2017-08-06T15:29:36.002Z,45.50
2017-08-06T15:32:04.301Z,45.90
2017-08-06T15:34:32.253Z,45.50
2017-08-06T15:37:00.366Z,45.00
2017-08-06T15:39:28.841Z,44.90
2017-08-06T15:41:56.924Z,45.70
2017-08-06T15:44:24.593Z,45.10
2017-08-06T15:46:52.248Z,45.60
2017-08-06T15:49:20.253Z,46.00
2017-08-06T15:51:48.273Z,45.90
2017-08-06T15:54:15.979Z,46.20
2017-08-06T15:56:44.471Z,46.90
2017-08-06T15:59:13.506Z,46.70
2017-08-06T16:01:42.078Z,47.10
2017-08-06T16:04:09.957Z,49.50
2017-08-06T16:06:38.084Z,51.40
2017-08-06T16:09:06.175Z,55.10
2017-08-06T16:11:34.156Z,58.10
2017-08-06T16:14:01.812Z,68.10
2017-08-06T16:16:29.940Z,74.60
2017-08-06T16:18:57.963Z,82.50
2017-08-06T16:21:26.097Z,82.20
2017-08-06T16:23:54.523Z,77.00
2017-08-06T16:26:22.593Z,73.60
2017-08-06T16:28:50.702Z,76.30
2017-08-06T16:31:18.531Z,77.30
2017-08-06T16:33:46.422Z,77.30
2017-08-06T16:36:14.038Z,77.70
2017-08-06T16:38:42.255Z,77.60
2017-08-06T16:41:10.226Z,72.80
2017-08-06T16:43:38.286Z,73.60
2017-08-06T16:46:06.354Z,73.80
2017-08-06T16:48:34.390Z,70.50
2017-08-06T16:51:02.395Z,67.90
2017-08-06T16:53:30.898Z,71.50
2017-08-06T16:55:58.838Z,72.00
2017-08-06T16:58:26.614Z,70.40
2017-08-06T17:00:54.604Z,71.60
2017-08-06T17:03:22.235Z,71.30
2017-08-06T17:05:50.249Z,73.30
2017-08-06T17:08:18.300Z,71.90
2017-08-06T17:10:47.437Z,72.80
2017-08-06T17:13:15.882Z,71.60
2017-08-06T17:15:44.005Z,72.80
2017-08-06T17:18:12.498Z,71.20
2017-08-06T17:20:41.030Z,71.80
2017-08-06T17:23:08.625Z,72.60
2017-08-06T17:25:37.359Z,67.50
2017-08-06T17:28:05.327Z,67.30
2017-08-06T17:30:33.159Z,66.50
2017-08-06T17:33:00.965Z,69.70
2017-08-06T17:35:29.118Z,70.20
2017-08-06T17:37:57.441Z,67.60
2017-08-06T17:40:25.818Z,67.00
2017-08-06T17:42:53.865Z,66.60
2017-08-06T17:45:22.867Z,66.70
2017-08-06T17:47:52.026Z,66.70
2017-08-06T17:50:21.066Z,66.60
2017-08-06T17:52:49.348Z,66.70
2017-08-06T17:55:17.755Z,65.60
2017-08-06T17:57:45.866Z,66.20
2017-08-06T18:00:13.855Z,68.50
2017-08-06T18:02:41.554Z,69.70
2017-08-06T18:05:09.389Z,69.30
2017-08-06T18:07:37.966Z,68.90
2017-08-06T18:10:06.391Z,69.80
2017-08-06T18:12:34.118Z,70.40
2017-08-06T18:15:02.226Z,70.50
2017-08-06T18:17:30.326Z,69.80
2017-08-06T18:19:58.539Z,67.70
2017-08-06T18:22:27.355Z,70.40
2017-08-06T18:24:55.949Z,71.20
2017-08-06T18:27:23.646Z,74.90
2017-08-06T18:29:52.298Z,72.00
2017-08-06T18:32:20.438Z,71.80
2017-08-06T18:34:48.131Z,72.20
2017-08-06T18:37:16.072Z,70.80
2017-08-06T18:39:44.350Z,72.70
2017-08-06T18:42:12.729Z,74.30
2017-08-06T18:44:40.660Z,74.10
2017-08-06T18:47:08.374Z,72.80
2017-08-06T18:49:36.488Z,73.00
2017-08-06T18:52:05.416Z,76.00
2017-08-06T18:54:33.912Z,76.30
2017-08-06T18:57:02.141Z,75.50
2017-08-06T18:59:30.174Z,75.80
2017-08-06T19:01:58.765Z,75.00
2017-08-06T19:04:26.504Z,72.80
2017-08-06T19:06:55.143Z,72.50
2017-08-06T19:09:23.964Z,70.30
2017-08-06T19:11:52.352Z,70.20
2017-08-06T19:14:20.182Z,72.00
2017-08-06T19:16:48.648Z,74.70
2017-08-06T19:19:17.324Z,74.00
2017-08-06T19:21:45.292Z,70.20
2017-08-06T19:24:13.731Z,70.00
2017-08-06T19:26:41.930Z,70.50
2017-08-06T19:29:10.065Z,69.90
2017-08-06T19:31:38.085Z,70.00
2017-08-06T19:34:06.867Z,70.20
2017-08-06T19:36:35.658Z,72.20
2017-08-06T19:39:03.724Z,72.20
2017-08-06T19:41:32.195Z,72.40
2017-08-06T19:44:00.541Z,73.40
2017-08-06T19:46:28.255Z,72.70
2017-08-06T19:48:56.161Z,72.00
2017-08-06T19:51:25.106Z,72.80
2017-08-06T19:53:53.938Z,71.90
2017-08-06T19:56:21.997Z,74.20
2017-08-06T19:58:50.236Z,72.10
2017-08-06T20:01:18.142Z,71.90
2017-08-06T20:03:46.504Z,73.20
2017-08-06T20:06:14.595Z,73.60
2017-08-06T20:08:43.035Z,74.80
2017-08-06T20:11:11.248Z,74.60
2017-08-06T20:13:40.217Z,75.70
2017-08-06T20:16:07.877Z,76.30
2017-08-06T20:18:36.267Z,78.40
2017-08-06T20:21:04.237Z,76.80
2017-08-06T20:23:33.242Z,73.40
2017-08-06T20:26:01.149Z,72.20
2017-08-06T20:28:29.140Z,74.60
2017-08-06T20:30:57.583Z,71.40
2017-08-06T20:33:25.624Z,71.30
2017-08-06T20:35:53.595Z,71.20
2017-08-06T20:38:21.836Z,69.20
2017-08-06T20:40:51.263Z,69.00
2017-08-06T20:43:19.406Z,69.00
2017-08-06T20:45:47.522Z,69.60
2017-08-06T20:48:15.462Z,69.80
2017-08-06T20:50:43.668Z,68.30
2017-08-06T20:53:12.115Z,68.70
2017-08-06T20:55:40.278Z,69.90
2017-08-06T20:58:08.601Z,72.70
2017-08-06T21:00:36.291Z,72.60
2017-08-06T21:03:03.807Z,72.50
2017-08-06T21:05:31.550Z,73.50
2017-08-06T21:07:59.989Z,72.30
2017-08-06T21:10:28.476Z,70.10
2017-08-06T21:12:56.086Z,70.10
2017-08-06T21:15:24.329Z,71.10
2017-08-06T21:17:51.996Z,71.00
2017-08-06T21:20:19.618Z,70.20
2017-08-06T21:22:47.502Z,69.40
2017-08-06T21:25:15.377Z,71.80
2017-08-06T21:27:42.913Z,71.70
2017-08-06T21:30:10.579Z,73.40
2017-08-06T21:32:38.274Z,73.30
2017-08-06T21:35:05.978Z,70.60
2017-08-06T21:37:34.439Z,70.90
2017-08-06T21:40:02.000Z,70.80
2017-08-06T21:42:29.579Z,69.80
2017-08-06T21:44:57.882Z,69.10
2017-08-06T21:47:26.104Z,69.00
2017-08-06T21:49:54.263Z,69.30
2017-08-06T21:52:21.738Z,69.80
2017-08-06T21:54:49.245Z,71.00
2017-08-06T21:57:16.751Z,73.50
2017-08-06T21:59:44.253Z,73.40
2017-08-06T22:02:11.747Z,71.80
2017-08-06T22:04:39.384Z,72.00
2017-08-06T22:07:07.954Z,71.50
2017-08-06T22:09:35.616Z,69.70
2017-08-06T22:12:03.511Z,69.70
2017-08-06T22:14:31.698Z,71.80
2017-08-06T22:16:59.835Z,71.70
2017-08-06T22:19:27.838Z,71.60
2017-08-06T22:21:56.108Z,71.80
2017-08-06T22:24:24.532Z,72.40
2017-08-06T22:26:52.102Z,74.00
2017-08-06T22:29:19.950Z,76.40
2017-08-06T22:31:47.905Z,75.60
2017-08-06T22:34:15.898Z,73.00
2017-08-06T22:36:43.495Z,71.90
2017-08-06T22:39:11.998Z,71.80
2017-08-06T22:41:40.323Z,72.20
2017-08-06T22:44:08.251Z,72.20
2017-08-06T22:46:36.126Z,71.90
2017-08-06T22:49:04.202Z,72.50
2017-08-06T22:51:32.330Z,72.50
2017-08-06T22:54:00.479Z,72.30
2017-08-06T22:56:28.304Z,74.30
2017-08-06T22:58:56.082Z,73.80
2017-08-06T23:01:23.635Z,73.40
2017-08-06T23:03:51.463Z,73.30
2017-08-06T23:06:19.610Z,72.60
2017-08-06T23:08:47.602Z,72.50
2017-08-06T23:11:15.367Z,72.40
2017-08-06T23:13:43.071Z,73.10
2017-08-06T23:16:11.556Z,74.20
2017-08-06T23:18:39.125Z,74.10
2017-08-06T23:21:06.681Z,73.80
2017-08-06T23:23:34.422Z,73.20
2017-08-06T23:26:02.168Z,73.50
2017-08-06T23:28:29.718Z,75.00
2017-08-06T23:30:57.199Z,75.40
2017-08-06T23:33:25.824Z,74.60
2017-08-06T23:35:53.749Z,74.50
2017-08-06T23:38:22.182Z,73.40
2017-08-06T23:40:49.763Z,73.40
2017-08-06T23:43:17.252Z,74.40
2017-08-06T23:45:45.556Z,75.50
2017-08-06T23:48:13.119Z,75.50
2017-08-06T23:50:40.603Z,79.30
2017-08-06T23:53:08.242Z,79.90
2017-08-06T23:55:35.740Z,80.00
2017-08-06T23:58:03.230Z,78.00
